createdAt,value
2023-02-14T00:00:30.297Z,0.00
2023-02-14T00:01:30.319Z,0.00
2023-02-14T00:02:30.387Z,0.00
2023-02-14T00:03:30.331Z,0.00
2023-02-14T00:04:30.385Z,0.00
2023-02-14T00:05:30.375Z,0.00
2023-02-14T00:06:30.396Z,0.00
2023-02-14T00:07:30.408Z,0.00
2023-02-14T00:08:30.444Z,0.00
2023-02-14T00:09:30.476Z,0.00
2023-02-14T00:10:30.441Z,0.00
2023-02-14T00:11:30.465Z,0.00
2023-02-14T00:12:30.497Z,0.00
2023-02-14T00:13:30.552Z,0.00
2023-02-14T00:14:30.547Z,0.00
2023-02-14T00:15:30.548Z,0.00
2023-02-14T00:16:30.549Z,0.00
2023-02-14T00:17:30.526Z,0.00
2023-02-14T00:18:30.561Z,0.00
2023-02-14T00:19:30.586Z,0.00
2023-02-14T00:20:30.599Z,0.00
2023-02-14T00:21:30.625Z,0.00
2023-02-14T00:22:30.638Z,0.00
2023-02-14T00:23:30.660Z,0.00
2023-02-14T00:24:30.687Z,0.00
2023-02-14T00:25:30.732Z,0.00
2023-02-14T00:26:30.699Z,0.00
2023-02-14T00:27:30.714Z,0.00
2023-02-14T00:28:30.736Z,0.00
2023-02-14T00:29:30.719Z,0.00
2023-02-14T00:30:30.867Z,0.00
2023-02-14T00:31:30.908Z,0.00
2023-02-14T00:32:30.773Z,0.00
2023-02-14T00:33:30.805Z,0.00
2023-02-14T00:34:30.822Z,0.00
2023-02-14T00:35:30.842Z,0.00
2023-02-14T00:36:30.865Z,0.00
2023-02-14T00:37:30.881Z,0.00
2023-02-14T00:38:30.903Z,0.00
2023-02-14T00:39:30.921Z,0.00
2023-02-14T00:40:30.931Z,0.00
2023-02-14T00:41:30.986Z,0.00
2023-02-14T00:42:30.957Z,0.00
2023-02-14T00:43:30.994Z,0.00
2023-02-14T00:44:30.986Z,0.00
2023-02-14T00:45:31.028Z,0.00
2023-02-14T00:46:30.988Z,0.00
2023-02-14T00:47:31.013Z,0.00
2023-02-14T00:48:31.020Z,0.00
2023-02-14T00:49:31.000Z,0.00
2023-02-14T00:50:31.027Z,0.00
2023-02-14T00:51:31.041Z,0.00
2023-02-14T00:52:31.028Z,0.00
2023-02-14T00:53:31.065Z,0.00
2023-02-14T00:54:31.085Z,0.00
2023-02-14T00:55:31.093Z,0.00
2023-02-14T00:56:31.089Z,0.00
2023-02-14T00:57:31.124Z,0.00
2023-02-14T00:58:31.090Z,0.00
2023-02-14T00:59:31.120Z,0.00
2023-02-14T01:00:31.152Z,0.00
2023-02-14T01:01:31.167Z,0.00
2023-02-14T01:02:31.263Z,0.00
2023-02-14T01:03:31.173Z,0.00
2023-02-14T01:04:31.199Z,0.00
2023-02-14T01:05:31.213Z,0.00
2023-02-14T01:06:31.260Z,0.00
2023-02-14T01:07:31.224Z,0.00
2023-02-14T01:08:31.240Z,0.00
2023-02-14T01:09:31.255Z,0.00
2023-02-14T01:10:31.271Z,0.00
2023-02-14T01:11:31.264Z,0.00
2023-02-14T01:12:31.272Z,0.00
2023-02-14T01:13:31.316Z,0.00
2023-02-14T01:14:31.290Z,0.00
2023-02-14T01:15:31.298Z,0.00
2023-02-14T01:16:31.417Z,0.00
2023-02-14T01:17:31.349Z,0.00
2023-02-14T01:18:31.360Z,0.00
2023-02-14T01:25:15.131Z,0.00
2023-02-14T01:27:41.033Z,0.00
2023-02-14T01:28:41.074Z,0.00
2023-02-14T01:29:41.063Z,0.00
2023-02-14T01:30:41.136Z,0.00
2023-02-14T01:31:41.315Z,0.00
2023-02-14T01:32:41.104Z,0.00
2023-02-14T01:33:41.123Z,0.00
2023-02-14T01:34:41.155Z,0.00
2023-02-14T01:35:41.174Z,0.00
2023-02-14T01:36:41.205Z,0.00
2023-02-14T01:37:41.226Z,0.00
2023-02-14T01:38:41.249Z,0.00
2023-02-14T01:39:41.268Z,0.00
2023-02-14T01:40:41.275Z,0.00
2023-02-14T01:41:41.342Z,0.00
2023-02-14T01:42:41.332Z,0.00
2023-02-14T01:43:41.349Z,0.00
2023-02-14T01:44:41.385Z,0.00
2023-02-14T01:45:41.398Z,0.00
2023-02-14T01:46:41.363Z,0.00
2023-02-14T01:47:41.375Z,0.00
2023-02-14T01:48:41.386Z,0.00
2023-02-14T01:49:41.420Z,0.00
2023-02-14T01:50:41.427Z,0.00
2023-02-14T01:51:41.444Z,0.00
2023-02-14T01:52:41.462Z,0.00
2023-02-14T01:53:41.478Z,0.00
2023-02-14T01:54:41.498Z,0.00
2023-02-14T01:55:41.521Z,0.00
2023-02-14T01:56:41.560Z,0.00
2023-02-14T01:57:41.573Z,0.00
2023-02-14T01:58:41.594Z,0.00
2023-02-14T01:59:41.641Z,0.00
2023-02-14T02:00:41.655Z,0.00
2023-02-14T02:01:41.752Z,0.00
2023-02-14T02:02:41.730Z,0.00
2023-02-14T02:03:41.636Z,0.00
2023-02-14T02:04:41.674Z,0.00
2023-02-14T02:05:41.709Z,0.00
2023-02-14T02:06:41.733Z,0.00
2023-02-14T02:07:41.765Z,0.00
2023-02-14T02:08:41.746Z,0.00
2023-02-14T02:09:41.768Z,0.00
2023-02-14T02:10:41.785Z,0.00
2023-02-14T02:11:41.807Z,0.00
2023-02-14T02:12:41.833Z,0.00
2023-02-14T02:13:41.859Z,0.00
2023-02-14T02:14:41.873Z,0.00
2023-02-14T02:15:41.888Z,0.00
2023-02-14T02:16:41.996Z,0.00
2023-02-14T02:17:41.894Z,0.00
2023-02-14T02:18:41.909Z,0.00
2023-02-14T02:19:41.939Z,0.00
2023-02-14T02:20:41.954Z,0.00
2023-02-14T02:21:41.988Z,0.00
2023-02-14T02:22:42.019Z,0.00
2023-02-14T02:23:41.986Z,0.00
2023-02-14T02:24:42.001Z,0.00
2023-02-14T02:25:42.021Z,0.00
2023-02-14T02:26:42.049Z,0.00
2023-02-14T02:27:42.030Z,0.00
2023-02-14T02:28:42.051Z,0.00
2023-02-14T02:29:42.080Z,0.00
2023-02-14T02:30:42.284Z,0.00
2023-02-14T02:31:42.265Z,0.00
2023-02-14T02:32:42.101Z,0.00
2023-02-14T02:33:42.086Z,0.00
2023-02-14T02:34:42.107Z,0.00
2023-02-14T02:35:42.144Z,0.00
2023-02-14T02:36:42.127Z,0.00
2023-02-14T02:37:42.114Z,0.00
2023-02-14T02:38:42.144Z,0.00
2023-02-14T02:39:42.166Z,0.00
2023-02-14T02:40:42.196Z,0.00
2023-02-14T02:41:42.216Z,0.00
2023-02-14T02:42:42.230Z,0.00
2023-02-14T02:43:42.254Z,0.00
2023-02-14T02:44:42.281Z,0.00
2023-02-14T02:45:42.339Z,0.00
2023-02-14T02:46:42.313Z,0.00
2023-02-14T02:47:42.352Z,0.00
2023-02-14T02:48:42.382Z,0.00
2023-02-14T02:49:42.349Z,0.00
2023-02-14T02:50:42.373Z,0.00
2023-02-14T02:51:42.394Z,0.00
2023-02-14T02:52:42.417Z,0.00
2023-02-14T02:53:42.428Z,0.00
2023-02-14T02:54:42.442Z,0.00
2023-02-14T02:55:42.468Z,0.00
2023-02-14T02:56:42.494Z,0.00
2023-02-14T02:57:42.514Z,0.00
2023-02-14T02:58:42.529Z,0.00
2023-02-14T02:59:42.553Z,0.00
2023-02-14T03:00:42.568Z,0.00
2023-02-14T03:01:42.630Z,0.00
2023-02-14T03:02:42.628Z,0.00
2023-02-14T03:03:42.605Z,0.00
2023-02-14T03:04:42.683Z,0.00
2023-02-14T03:05:42.612Z,0.00
2023-02-14T03:06:42.632Z,0.00
2023-02-14T03:07:42.658Z,0.00
2023-02-14T03:08:42.673Z,0.00
2023-02-14T03:09:42.692Z,0.00
2023-02-14T03:10:42.712Z,0.00
2023-02-14T03:11:42.724Z,0.00
2023-02-14T03:12:42.754Z,0.00
2023-02-14T03:13:42.774Z,0.00
2023-02-14T03:14:42.792Z,0.00
2023-02-14T03:15:42.855Z,0.00
2023-02-14T03:16:42.816Z,0.00
2023-02-14T03:17:42.828Z,0.00
2023-02-14T03:18:42.848Z,0.00
2023-02-14T03:19:42.864Z,0.00
2023-02-14T03:20:42.901Z,0.00
2023-02-14T03:21:42.875Z,0.00
2023-02-14T03:22:42.865Z,0.00
2023-02-14T03:23:42.886Z,0.00
2023-02-14T03:24:42.901Z,0.00
2023-02-14T03:25:42.929Z,0.00
2023-02-14T03:26:42.913Z,0.00
2023-02-14T03:27:42.945Z,0.00
2023-02-14T03:28:42.971Z,0.00
2023-02-14T03:29:42.974Z,0.00
2023-02-14T03:30:43.064Z,0.00
2023-02-14T03:31:43.078Z,0.00
2023-02-14T03:32:42.972Z,0.00
2023-02-14T03:33:43.002Z,0.00
2023-02-14T03:34:43.026Z,0.00
2023-02-14T03:35:43.047Z,0.00
2023-02-14T03:36:43.310Z,0.00
2023-02-14T03:37:43.102Z,0.00
2023-02-14T03:38:43.080Z,0.00
2023-02-14T03:39:43.098Z,0.00
2023-02-14T03:40:43.131Z,0.00
2023-02-14T03:41:43.109Z,0.00
2023-02-14T03:42:43.141Z,0.00
2023-02-14T03:43:43.174Z,0.00
2023-02-14T03:44:43.201Z,0.00
2023-02-14T03:45:43.217Z,0.00
2023-02-14T03:46:43.331Z,0.00
2023-02-14T03:47:43.283Z,0.00
2023-02-14T03:48:43.255Z,0.00
2023-02-14T03:49:43.277Z,0.00
2023-02-14T03:50:43.287Z,0.00
2023-02-14T03:51:43.311Z,0.00
2023-02-14T03:52:43.357Z,0.00
2023-02-14T03:53:43.330Z,0.00
2023-02-14T03:54:43.392Z,0.00
2023-02-14T03:55:43.352Z,0.00
2023-02-14T03:56:43.381Z,0.00
2023-02-14T03:57:43.405Z,0.00
2023-02-14T03:58:43.423Z,0.00
2023-02-14T03:59:43.454Z,0.00
2023-02-14T04:00:43.477Z,0.00
2023-02-14T04:01:43.553Z,0.00
2023-02-14T04:02:43.516Z,0.00
2023-02-14T04:03:43.601Z,0.00
2023-02-14T04:04:43.513Z,0.00
2023-02-14T04:05:43.533Z,0.00
2023-02-14T04:06:43.548Z,0.00
2023-02-14T04:07:43.580Z,0.00
2023-02-14T04:08:43.631Z,0.00
2023-02-14T04:09:43.605Z,0.00
2023-02-14T04:10:43.631Z,0.00
2023-02-14T04:11:43.620Z,0.00
2023-02-14T04:12:43.649Z,0.00
2023-02-14T04:13:43.666Z,0.00
2023-02-14T04:14:43.693Z,0.00
2023-02-14T04:15:43.736Z,0.00
2023-02-14T04:16:43.714Z,0.00
2023-02-14T04:17:43.747Z,0.00
2023-02-14T04:18:43.763Z,0.00
2023-02-14T04:19:43.776Z,0.00
2023-02-14T04:20:43.788Z,0.00
2023-02-14T04:21:43.801Z,0.00
2023-02-14T04:22:43.842Z,0.00
2023-02-14T04:23:43.847Z,0.00
2023-02-14T04:24:43.888Z,0.00
2023-02-14T04:25:43.867Z,0.00
2023-02-14T04:26:43.881Z,0.00
2023-02-14T04:27:43.916Z,0.00
2023-02-14T04:28:43.927Z,0.00
2023-02-14T04:29:43.957Z,0.00
2023-02-14T04:30:43.966Z,0.00
2023-02-14T04:31:44.079Z,0.00
2023-02-14T04:32:44.019Z,0.00
2023-02-14T04:33:44.044Z,0.00
2023-02-14T04:34:44.056Z,0.00
2023-02-14T04:35:44.064Z,0.00
2023-02-14T04:36:44.094Z,0.00
2023-02-14T04:37:44.122Z,0.00
2023-02-14T04:38:44.140Z,0.00
2023-02-14T04:39:44.176Z,0.00
2023-02-14T04:40:44.225Z,0.00
2023-02-14T04:41:44.190Z,0.00
2023-02-14T04:42:44.202Z,0.00
2023-02-14T04:43:44.223Z,0.00
2023-02-14T04:44:44.268Z,0.00
2023-02-14T04:45:44.252Z,0.00
2023-02-14T04:46:44.319Z,0.00
2023-02-14T04:47:44.343Z,0.00
2023-02-14T04:48:44.313Z,0.00
2023-02-14T04:49:44.322Z,0.00
2023-02-14T04:50:44.328Z,0.00
2023-02-14T04:51:44.349Z,0.00
2023-02-14T04:52:44.382Z,0.00
2023-02-14T04:53:44.370Z,0.00
2023-02-14T04:54:44.382Z,0.00
2023-02-14T04:55:44.395Z,0.00
2023-02-14T04:56:44.442Z,0.00
2023-02-14T04:57:44.432Z,0.00
2023-02-14T04:58:44.448Z,0.00
2023-02-14T04:59:44.461Z,0.00
2023-02-14T05:00:44.543Z,0.00
2023-02-14T05:01:44.561Z,0.00
2023-02-14T05:02:44.510Z,0.00
2023-02-14T05:03:44.523Z,0.00
2023-02-14T05:04:44.540Z,0.00
2023-02-14T05:05:44.558Z,0.00
2023-02-14T05:06:44.576Z,0.00
2023-02-14T05:07:44.601Z,0.00
2023-02-14T05:08:44.614Z,0.00
2023-02-14T05:09:44.629Z,0.00
2023-02-14T05:10:44.655Z,0.00
2023-02-14T05:11:44.696Z,0.00
2023-02-14T05:12:44.738Z,0.00
2023-02-14T05:13:44.715Z,0.00
2023-02-14T05:14:44.732Z,0.00
2023-02-14T05:15:44.751Z,0.00
2023-02-14T05:16:44.929Z,0.00
2023-02-14T05:17:44.795Z,0.00
2023-02-14T05:18:44.818Z,0.00
2023-02-14T05:19:44.840Z,0.00
2023-02-14T05:20:44.851Z,0.00
2023-02-14T05:21:44.868Z,0.00
2023-02-14T05:22:44.922Z,0.00
2023-02-14T05:23:44.887Z,0.00
2023-02-14T05:24:44.911Z,0.00
2023-02-14T05:25:44.927Z,0.00
2023-02-14T05:26:44.952Z,0.00
2023-02-14T05:27:44.981Z,0.00
2023-02-14T05:28:45.020Z,0.00
2023-02-14T05:29:44.997Z,0.00
2023-02-14T05:30:45.047Z,0.00
2023-02-14T05:31:45.045Z,0.00
2023-02-14T05:32:45.011Z,0.00
2023-02-14T05:33:45.027Z,0.00
2023-02-14T05:34:45.040Z,0.00
2023-02-14T05:35:45.062Z,0.00
2023-02-14T05:36:45.052Z,0.00
2023-02-14T05:37:45.052Z,0.00
2023-02-14T05:38:45.094Z,0.00
2023-02-14T05:39:45.098Z,0.00
2023-02-14T05:40:45.065Z,0.00
2023-02-14T05:41:45.075Z,0.00
2023-02-14T05:42:45.102Z,0.00
2023-02-14T05:43:45.118Z,0.00
2023-02-14T05:44:45.167Z,0.00
2023-02-14T05:45:45.189Z,0.00
2023-02-14T05:46:45.130Z,0.00
2023-02-14T05:47:45.154Z,0.00
2023-02-14T05:48:45.179Z,0.00
2023-02-14T05:49:45.221Z,0.00
2023-02-14T05:50:45.236Z,0.00
2023-02-14T05:51:45.254Z,0.00
2023-02-14T05:52:45.268Z,0.00
2023-02-14T05:53:45.289Z,0.00
2023-02-14T05:54:45.321Z,0.00
2023-02-14T05:55:45.343Z,0.00
2023-02-14T05:56:45.361Z,0.00
2023-02-14T05:57:45.377Z,0.00
2023-02-14T05:58:45.390Z,0.00
2023-02-14T05:59:45.404Z,0.00
2023-02-14T06:02:11.489Z,0.00
2023-02-14T06:03:11.370Z,0.00
2023-02-14T06:04:11.446Z,0.00
2023-02-14T06:05:11.402Z,0.00
2023-02-14T06:06:11.410Z,0.00
2023-02-14T06:07:11.445Z,0.00
2023-02-14T06:08:11.457Z,0.00
2023-02-14T06:09:11.485Z,0.00
2023-02-14T06:10:11.519Z,0.00
2023-02-14T06:11:11.541Z,0.00
2023-02-14T06:12:11.567Z,0.00
2023-02-14T06:13:11.596Z,0.00
2023-02-14T06:14:11.577Z,0.00
2023-02-14T06:15:11.616Z,0.00
2023-02-14T06:16:11.693Z,0.00
2023-02-14T06:17:11.625Z,0.00
2023-02-14T06:18:11.735Z,0.00
2023-02-14T06:19:11.665Z,0.00
2023-02-14T06:20:11.679Z,0.00
2023-02-14T06:21:11.707Z,0.00
2023-02-14T06:22:11.735Z,0.00
2023-02-14T06:23:11.797Z,0.00
2023-02-14T06:24:11.782Z,0.00
2023-02-14T06:25:11.760Z,0.00
2023-02-14T06:26:11.800Z,0.00
2023-02-14T06:27:11.794Z,0.00
2023-02-14T06:28:11.800Z,0.00
2023-02-14T06:29:11.815Z,0.00
2023-02-14T06:30:12.492Z,0.00
2023-02-14T06:31:11.987Z,0.00
2023-02-14T06:32:12.035Z,0.00
2023-02-14T06:33:11.881Z,0.00
2023-02-14T06:34:11.935Z,0.00
2023-02-14T06:35:11.930Z,0.00
2023-02-14T06:36:11.902Z,0.00
2023-02-14T06:37:11.935Z,0.00
2023-02-14T06:38:11.918Z,0.00
2023-02-14T06:39:11.937Z,0.00
2023-02-14T06:40:11.971Z,0.00
2023-02-14T06:41:11.980Z,0.00
2023-02-14T06:42:12.000Z,0.00
2023-02-14T06:43:12.043Z,0.00
2023-02-14T06:44:12.025Z,0.00
2023-02-14T06:45:12.040Z,0.00
2023-02-14T06:46:12.118Z,0.00
2023-02-14T06:47:12.076Z,0.00
2023-02-14T06:48:12.145Z,0.00
2023-02-14T06:49:12.123Z,0.00
2023-02-14T06:50:12.166Z,0.00
2023-02-14T06:51:12.144Z,0.00
2023-02-14T06:52:12.181Z,0.00
2023-02-14T06:53:12.197Z,0.00
2023-02-14T06:54:12.223Z,0.00
2023-02-14T06:55:12.257Z,0.00
2023-02-14T06:57:38.198Z,0.00
2023-02-14T06:58:38.189Z,0.00
2023-02-14T06:59:38.184Z,0.00
2023-02-14T07:00:38.219Z,0.00
2023-02-14T07:01:38.272Z,0.00
2023-02-14T07:02:38.298Z,5.62
2023-02-14T07:03:38.234Z,5.62
2023-02-14T07:04:38.232Z,5.62
2023-02-14T07:05:38.282Z,5.62
2023-02-14T07:06:38.298Z,5.62
2023-02-14T07:07:38.279Z,5.62
2023-02-14T07:08:38.323Z,5.62
2023-02-14T07:09:38.304Z,5.62
2023-02-14T07:10:38.464Z,5.62
2023-02-14T07:11:38.313Z,5.62
2023-02-14T07:12:38.340Z,5.62
2023-02-14T07:13:38.359Z,5.62
2023-02-14T07:14:38.338Z,5.62
2023-02-14T07:15:38.463Z,5.62
2023-02-14T07:16:38.413Z,5.62
2023-02-14T07:17:38.402Z,5.62
2023-02-14T07:18:38.433Z,5.62
2023-02-14T07:19:38.423Z,5.62
2023-02-14T07:20:38.458Z,5.62
2023-02-14T07:21:38.500Z,5.62
2023-02-14T07:22:38.460Z,11.25
2023-02-14T07:23:38.458Z,11.25
2023-02-14T07:24:38.440Z,5.62
2023-02-14T07:25:38.448Z,5.62
2023-02-14T07:26:38.442Z,5.62
2023-02-14T07:27:38.465Z,11.25
2023-02-14T07:28:38.460Z,11.25
2023-02-14T07:29:38.466Z,11.25
2023-02-14T07:30:38.442Z,11.25
2023-02-14T07:31:38.571Z,11.25
2023-02-14T07:32:38.457Z,11.25
2023-02-14T07:33:38.442Z,11.25
2023-02-14T07:34:38.430Z,11.25
2023-02-14T07:35:38.456Z,11.25
2023-02-14T07:36:38.496Z,11.25
2023-02-14T07:37:38.539Z,11.25
2023-02-14T07:38:38.608Z,11.25
2023-02-14T07:39:38.511Z,11.25
2023-02-14T07:40:38.505Z,11.25
2023-02-14T07:41:38.565Z,11.25
2023-02-14T07:42:38.560Z,11.25
2023-02-14T07:43:38.607Z,11.25
2023-02-14T07:44:38.586Z,16.88
2023-02-14T07:45:38.587Z,16.88
2023-02-14T07:46:38.636Z,16.88
2023-02-14T07:47:38.599Z,16.88
2023-02-14T07:48:38.612Z,16.88
2023-02-14T07:49:38.626Z,16.88
2023-02-14T07:50:38.632Z,16.88
2023-02-14T07:51:38.668Z,16.88
2023-02-14T07:52:38.651Z,16.88
2023-02-14T07:53:38.661Z,16.88
2023-02-14T07:54:38.673Z,16.88
2023-02-14T07:55:38.672Z,16.88
2023-02-14T07:56:38.725Z,16.88
2023-02-14T07:57:38.748Z,16.88
2023-02-14T07:58:38.756Z,16.88
2023-02-14T07:59:38.768Z,16.88
2023-02-14T08:00:38.743Z,16.88
2023-02-14T08:01:38.830Z,16.88
2023-02-14T08:02:38.794Z,16.88
2023-02-14T08:03:38.788Z,16.88
2023-02-14T08:04:38.821Z,16.88
2023-02-14T08:05:38.764Z,16.88
2023-02-14T08:06:38.801Z,22.50
2023-02-14T08:07:38.907Z,22.50
2023-02-14T08:08:38.864Z,22.50
2023-02-14T08:09:38.874Z,22.50
2023-02-14T08:10:38.879Z,22.50
2023-02-14T08:11:38.858Z,22.50
2023-02-14T08:12:38.909Z,22.50
2023-02-14T08:13:38.896Z,22.50
2023-02-14T08:14:38.910Z,22.50
2023-02-14T08:15:39.000Z,22.50
2023-02-14T08:16:38.978Z,22.50
2023-02-14T08:17:39.001Z,22.50
2023-02-14T08:18:39.046Z,22.50
2023-02-14T08:19:39.067Z,22.50
2023-02-14T08:20:39.124Z,22.50
2023-02-14T08:21:39.125Z,22.50
2023-02-14T08:22:39.113Z,22.50
2023-02-14T08:23:39.166Z,22.50
2023-02-14T08:24:39.158Z,22.50
2023-02-14T08:25:39.286Z,22.50
2023-02-14T08:26:39.142Z,22.50
2023-02-14T08:27:39.179Z,22.50
2023-02-14T08:28:39.171Z,28.12
2023-02-14T08:29:39.195Z,22.50
2023-02-14T08:30:39.219Z,22.50
2023-02-14T08:31:39.303Z,22.50
2023-02-14T08:32:39.530Z,22.50
2023-02-14T08:33:39.231Z,22.50
2023-02-14T08:34:39.285Z,28.12
2023-02-14T08:35:39.369Z,28.12
2023-02-14T08:36:40.372Z,28.12
2023-02-14T08:37:39.287Z,28.12
2023-02-14T08:38:39.279Z,28.12
2023-02-14T08:39:39.339Z,28.12
2023-02-14T08:40:39.333Z,28.12
2023-02-14T08:41:39.387Z,28.12
2023-02-14T08:42:39.334Z,28.12
2023-02-14T08:43:39.320Z,28.12
2023-02-14T08:44:39.345Z,28.12
2023-02-14T08:45:39.345Z,28.12
2023-02-14T08:46:39.460Z,28.12
2023-02-14T08:47:39.447Z,28.12
2023-02-14T08:48:39.657Z,28.12
2023-02-14T08:49:39.431Z,28.12
2023-02-14T08:50:39.376Z,33.75
2023-02-14T08:51:39.439Z,28.12
2023-02-14T08:52:39.429Z,33.75
2023-02-14T08:53:39.420Z,33.75
2023-02-14T08:54:39.423Z,33.75
2023-02-14T08:55:39.458Z,33.75
2023-02-14T08:56:39.456Z,39.38
2023-02-14T08:57:39.464Z,39.38
2023-02-14T08:58:39.489Z,33.75
2023-02-14T08:59:39.483Z,33.75
2023-02-14T09:00:39.578Z,33.75
2023-02-14T09:01:39.485Z,33.75
2023-02-14T09:02:39.502Z,33.75
2023-02-14T09:03:39.664Z,33.75
2023-02-14T09:04:39.716Z,33.75
2023-02-14T09:05:39.547Z,33.75
2023-02-14T09:06:39.551Z,33.75
2023-02-14T09:07:39.592Z,33.75
2023-02-14T09:08:39.626Z,33.75
2023-02-14T09:09:39.613Z,33.75
2023-02-14T09:10:39.634Z,39.38
2023-02-14T09:11:39.591Z,39.38
2023-02-14T09:12:39.567Z,39.38
2023-02-14T09:13:39.597Z,39.38
2023-02-14T09:14:39.590Z,39.38
2023-02-14T09:15:39.604Z,39.38
2023-02-14T09:16:39.687Z,39.38
2023-02-14T09:17:39.605Z,39.38
2023-02-14T09:18:39.703Z,39.38
2023-02-14T09:19:39.630Z,39.38
2023-02-14T09:20:39.645Z,39.38
2023-02-14T09:21:39.634Z,45.00
2023-02-14T09:22:39.712Z,45.00
2023-02-14T09:23:39.673Z,39.38
2023-02-14T09:24:39.687Z,39.38
2023-02-14T09:25:39.707Z,39.38
2023-02-14T09:26:39.680Z,39.38
2023-02-14T09:27:39.703Z,39.38
2023-02-14T09:28:39.721Z,39.38
2023-02-14T09:29:39.769Z,39.38
2023-02-14T09:30:39.724Z,39.38
2023-02-14T09:31:39.851Z,39.38
2023-02-14T09:32:39.701Z,39.38
2023-02-14T09:33:39.721Z,39.38
2023-02-14T09:34:39.746Z,39.38
2023-02-14T09:35:39.745Z,45.00
2023-02-14T09:36:39.761Z,45.00
2023-02-14T09:37:39.759Z,45.00
2023-02-14T09:38:39.732Z,50.62
2023-02-14T09:39:39.779Z,45.00
2023-02-14T09:40:39.757Z,45.00
2023-02-14T09:41:39.790Z,45.00
2023-02-14T09:42:39.786Z,45.00
2023-02-14T09:43:39.786Z,45.00
2023-02-14T09:44:39.780Z,45.00
2023-02-14T09:45:39.878Z,45.00
2023-02-14T09:46:39.780Z,45.00
2023-02-14T09:47:39.817Z,45.00
2023-02-14T09:48:39.817Z,50.62
2023-02-14T09:49:40.030Z,45.00
2023-02-14T09:50:39.814Z,45.00
2023-02-14T09:51:39.808Z,45.00
2023-02-14T09:52:39.831Z,45.00
2023-02-14T09:53:39.828Z,45.00
2023-02-14T09:54:39.877Z,45.00
2023-02-14T09:55:39.884Z,45.00
2023-02-14T09:56:50.805Z,45.00
2023-02-14T09:57:39.943Z,50.62
2023-02-14T09:58:39.922Z,50.62
2023-02-14T09:59:39.985Z,50.62
2023-02-14T10:00:40.013Z,50.62
2023-02-14T10:01:40.070Z,56.25
2023-02-14T10:02:40.091Z,56.25
2023-02-14T10:03:40.006Z,56.25
2023-02-14T10:04:40.080Z,56.25
2023-02-14T10:05:40.063Z,50.62
2023-02-14T10:06:40.074Z,50.62
2023-02-14T10:07:40.106Z,50.62
2023-02-14T10:08:40.077Z,50.62
2023-02-14T10:09:40.064Z,50.62
2023-02-14T10:10:40.100Z,50.62
2023-02-14T10:11:40.090Z,50.62
2023-02-14T10:12:40.118Z,50.62
2023-02-14T10:13:40.148Z,50.62
2023-02-14T10:14:40.122Z,50.62
2023-02-14T10:15:40.213Z,50.62
2023-02-14T10:16:40.342Z,50.62
2023-02-14T10:17:40.174Z,50.62
2023-02-14T10:18:40.167Z,50.62
2023-02-14T10:19:40.147Z,50.62
2023-02-14T10:20:40.177Z,50.62
2023-02-14T10:21:40.216Z,50.62
2023-02-14T10:22:40.270Z,50.62
2023-02-14T10:23:40.276Z,50.62
2023-02-14T10:24:40.259Z,50.62
2023-02-14T10:25:40.296Z,50.62
2023-02-14T10:26:40.302Z,56.25
2023-02-14T10:27:40.340Z,56.25
2023-02-14T10:28:40.295Z,61.88
2023-02-14T10:29:40.298Z,61.88
2023-02-14T10:30:40.534Z,61.88
2023-02-14T10:31:40.426Z,56.25
2023-02-14T10:32:40.312Z,61.88
2023-02-14T10:33:40.322Z,56.25
2023-02-14T10:34:40.334Z,56.25
2023-02-14T10:35:40.332Z,56.25
2023-02-14T10:36:40.366Z,56.25
2023-02-14T10:37:40.362Z,56.25
2023-02-14T10:38:40.389Z,56.25
2023-02-14T10:39:40.322Z,61.88
2023-02-14T10:40:40.396Z,61.88
2023-02-14T10:41:40.403Z,56.25
2023-02-14T10:42:40.402Z,56.25
2023-02-14T10:43:40.433Z,56.25
2023-02-14T10:44:40.417Z,56.25
2023-02-14T10:45:40.428Z,56.25
2023-02-14T10:46:40.441Z,56.25
2023-02-14T10:47:40.419Z,61.88
2023-02-14T10:48:40.447Z,61.88
2023-02-14T10:49:40.451Z,61.88
2023-02-14T10:50:40.434Z,61.88
2023-02-14T10:51:40.471Z,61.88
2023-02-14T10:52:40.467Z,61.88
2023-02-14T10:53:40.448Z,61.88
2023-02-14T10:54:40.489Z,67.50
2023-02-14T10:55:40.522Z,67.50
2023-02-14T10:56:40.518Z,67.50
2023-02-14T10:57:40.508Z,67.50
2023-02-14T10:58:40.546Z,67.50
2023-02-14T10:59:40.560Z,67.50
2023-02-14T11:00:40.542Z,67.50
2023-02-14T11:01:40.604Z,67.50
2023-02-14T11:02:40.577Z,61.88
2023-02-14T11:03:42.901Z,61.88
2023-02-14T11:04:40.624Z,67.50
2023-02-14T11:05:40.676Z,67.50
2023-02-14T11:06:40.719Z,67.50
2023-02-14T11:07:40.684Z,67.50
2023-02-14T11:08:40.682Z,67.50
2023-02-14T11:09:40.721Z,73.12
2023-02-14T11:10:40.730Z,78.75
2023-02-14T11:11:40.727Z,84.38
2023-02-14T11:12:40.859Z,78.75
2023-02-14T11:13:40.850Z,78.75
2023-02-14T11:14:40.822Z,78.75
2023-02-14T11:15:41.387Z,73.12
2023-02-14T11:16:40.859Z,73.12
2023-02-14T11:17:40.848Z,73.12
2023-02-14T11:18:41.342Z,73.12
2023-02-14T11:19:40.826Z,73.12
2023-02-14T11:20:41.954Z,67.50
2023-02-14T11:21:40.821Z,67.50
2023-02-14T11:22:40.879Z,61.88
2023-02-14T11:23:40.879Z,61.88
2023-02-14T11:24:40.896Z,67.50
2023-02-14T11:25:40.901Z,67.50
2023-02-14T11:26:40.927Z,73.12
2023-02-14T11:27:40.920Z,73.12
2023-02-14T11:28:42.082Z,73.12
2023-02-14T11:29:40.942Z,73.12
2023-02-14T11:30:41.127Z,78.75
2023-02-14T11:31:41.209Z,78.75
2023-02-14T11:32:40.957Z,78.75
2023-02-14T11:33:40.953Z,73.12
2023-02-14T11:34:41.017Z,73.12
2023-02-14T11:35:40.962Z,73.12
2023-02-14T11:36:40.968Z,67.50
2023-02-14T11:37:40.958Z,73.12
2023-02-14T11:38:40.950Z,78.75
2023-02-14T11:39:40.976Z,78.75
2023-02-14T11:40:40.962Z,78.75
2023-02-14T11:41:40.989Z,78.75
2023-02-14T11:42:40.989Z,78.75
2023-02-14T11:43:40.964Z,78.75
2023-02-14T11:44:40.969Z,73.12
2023-02-14T11:45:41.009Z,78.75
2023-02-14T11:46:52.168Z,78.75
2023-02-14T11:47:41.021Z,78.75
2023-02-14T11:48:40.998Z,78.75
2023-02-14T11:49:41.044Z,78.75
2023-02-14T11:50:41.088Z,78.75
2023-02-14T11:51:41.082Z,78.75
2023-02-14T11:52:41.095Z,78.75
2023-02-14T11:53:41.071Z,73.12
2023-02-14T11:54:41.098Z,73.12
2023-02-14T11:55:41.141Z,73.12
2023-02-14T11:56:41.153Z,73.12
2023-02-14T11:57:41.228Z,73.12
2023-02-14T11:58:41.203Z,73.12
2023-02-14T11:59:41.285Z,73.12
2023-02-14T12:00:41.232Z,67.50
2023-02-14T12:01:41.261Z,73.12
2023-02-14T12:02:41.277Z,67.50
2023-02-14T12:03:41.356Z,67.50
2023-02-14T12:04:46.240Z,67.50
2023-02-14T12:05:41.362Z,67.50
2023-02-14T12:06:41.341Z,67.50
2023-02-14T12:07:41.330Z,67.50
2023-02-14T12:08:41.377Z,67.50
2023-02-14T12:09:41.357Z,67.50
2023-02-14T12:10:41.425Z,73.12
2023-02-14T12:11:41.425Z,73.12
2023-02-14T12:12:41.404Z,78.75
2023-02-14T12:13:41.461Z,84.38
2023-02-14T12:14:41.473Z,78.75
2023-02-14T12:15:41.512Z,84.38
2023-02-14T12:16:41.507Z,84.38
2023-02-14T12:17:41.529Z,78.75
2023-02-14T12:18:41.576Z,78.75
2023-02-14T12:19:41.646Z,78.75
2023-02-14T12:20:41.560Z,78.75
2023-02-14T12:21:41.583Z,78.75
2023-02-14T12:22:41.574Z,78.75
2023-02-14T12:23:41.560Z,78.75
2023-02-14T12:24:41.590Z,78.75
2023-02-14T12:25:41.638Z,73.12
2023-02-14T12:26:41.627Z,73.12
2023-02-14T12:27:41.641Z,73.12
2023-02-14T12:28:41.633Z,73.12
2023-02-14T12:29:41.702Z,73.12
2023-02-14T12:30:41.705Z,73.12
2023-02-14T12:31:41.739Z,73.12
2023-02-14T12:32:41.652Z,67.50
2023-02-14T12:33:41.633Z,67.50
2023-02-14T12:34:41.724Z,67.50
2023-02-14T12:37:07.590Z,67.50
2023-02-14T12:38:07.561Z,67.50
2023-02-14T12:39:07.566Z,67.50
2023-02-14T12:40:07.579Z,67.50
2023-02-14T12:41:07.576Z,61.88
2023-02-14T12:42:07.576Z,61.88
2023-02-14T12:43:07.567Z,61.88
2023-02-14T12:44:07.594Z,61.88
2023-02-14T12:45:07.578Z,61.88
2023-02-14T12:46:07.662Z,61.88
2023-02-14T12:47:07.631Z,61.88
2023-02-14T12:48:07.627Z,61.88
2023-02-14T12:49:07.654Z,61.88
2023-02-14T12:50:07.673Z,61.88
2023-02-14T12:51:07.717Z,61.88
2023-02-14T12:52:07.729Z,61.88
2023-02-14T12:53:07.781Z,61.88
2023-02-14T12:54:07.758Z,67.50
2023-02-14T12:55:07.745Z,67.50
2023-02-14T12:56:07.754Z,67.50
2023-02-14T12:57:07.732Z,67.50
2023-02-14T12:58:07.726Z,61.88
2023-02-14T12:59:07.756Z,61.88
2023-02-14T13:00:07.758Z,67.50
2023-02-14T13:01:07.734Z,67.50
2023-02-14T13:02:07.776Z,67.50
2023-02-14T13:03:07.842Z,61.88
2023-02-14T13:04:07.734Z,61.88
2023-02-14T13:05:07.737Z,61.88
2023-02-14T13:06:07.725Z,61.88
2023-02-14T13:07:07.718Z,56.25
2023-02-14T13:08:07.696Z,56.25
2023-02-14T13:09:07.752Z,56.25
2023-02-14T13:10:07.728Z,61.88
2023-02-14T13:11:07.716Z,61.88
2023-02-14T13:12:07.755Z,61.88
2023-02-14T13:13:07.776Z,61.88
2023-02-14T13:14:07.813Z,61.88
2023-02-14T13:15:07.804Z,61.88
2023-02-14T13:16:07.853Z,61.88
2023-02-14T13:17:07.827Z,61.88
2023-02-14T13:18:07.799Z,61.88